createdAt,value
2022-08-18T00:01:24.525Z,100588.47
2022-08-18T00:03:56.064Z,100586.06
2022-08-18T00:06:29.547Z,100580.47
2022-08-18T00:09:00.294Z,100587.19
2022-08-18T00:11:41.044Z,100584.34
2022-08-18T00:14:21.429Z,100590.97
2022-08-18T00:16:53.360Z,100585.34
2022-08-18T00:19:45.582Z,100586.03
2022-08-18T00:22:15.135Z,100589.44
2022-08-18T00:24:47.639Z,100589.44
2022-08-18T00:27:21.581Z,100592.50
2022-08-18T00:29:51.175Z,100583.50
2022-08-18T00:32:24.144Z,100578.34
2022-08-18T00:34:53.713Z,100575.28
2022-08-18T00:37:22.082Z,100575.28
2022-08-18T00:39:53.030Z,100574.13
2022-08-18T00:42:27.477Z,100568.19
2022-08-18T00:45:02.784Z,100569.78
2022-08-18T00:47:41.327Z,100566.94
2022-08-18T00:50:39.432Z,100567.72
2022-08-18T00:53:17.752Z,100567.25
2022-08-18T00:55:53.998Z,100562.00
2022-08-18T00:58:35.726Z,100566.34
2022-08-18T01:01:06.970Z,100572.81
2022-08-18T01:03:39.753Z,100580.09
2022-08-18T01:06:32.618Z,100575.28
2022-08-18T01:09:00.271Z,100571.97
2022-08-18T01:11:28.590Z,100572.63
2022-08-18T01:13:55.731Z,100565.75
2022-08-18T01:16:53.814Z,100562.56
2022-08-18T01:19:45.984Z,100565.31
2022-08-18T01:22:58.304Z,100565.50
2022-08-18T01:25:51.386Z,100562.94
2022-08-18T01:28:20.687Z,100561.88
2022-08-18T01:30:55.716Z,100576.50
2022-08-18T01:33:22.732Z,100579.91
2022-08-18T01:35:57.432Z,100573.16
2022-08-18T01:38:26.178Z,100570.28
2022-08-18T01:41:22.453Z,100571.63
2022-08-18T01:43:41.451Z,100566.00
2022-08-18T01:46:08.972Z,100570.53
2022-08-18T01:48:38.013Z,100566.84
2022-08-18T01:51:08.054Z,100575.25
2022-08-18T01:53:36.524Z,100564.19
2022-08-18T01:56:05.704Z,100561.31
2022-08-18T01:58:34.813Z,100559.22
2022-08-18T02:01:02.446Z,100551.50
2022-08-18T02:03:35.967Z,100552.97
2022-08-18T02:06:07.202Z,100563.63
2022-08-18T02:08:35.005Z,100556.41
2022-08-18T02:11:03.538Z,100548.38
2022-08-18T02:13:31.204Z,100549.06
2022-08-18T02:15:58.148Z,100543.25
2022-08-18T02:18:47.245Z,100540.84
2022-08-18T02:21:19.172Z,100542.97
2022-08-18T02:23:49.231Z,100533.81
2022-08-18T02:26:21.167Z,100536.41
2022-08-18T02:28:48.301Z,100538.19
2022-08-18T02:31:19.636Z,100537.06
2022-08-18T02:33:52.064Z,100542.38
2022-08-18T02:36:21.078Z,100530.50
2022-08-18T02:38:54.870Z,100535.00
2022-08-18T02:41:29.898Z,100540.47
2022-08-18T02:43:58.651Z,100529.22
2022-08-18T02:46:30.130Z,100531.81
2022-08-18T02:49:01.743Z,100535.34
2022-08-18T02:51:28.950Z,100536.00
2022-08-18T02:53:59.771Z,100537.13
2022-08-18T02:56:40.504Z,100534.25
2022-08-18T02:59:16.557Z,100544.69
2022-08-18T03:01:48.176Z,100537.47
2022-08-18T03:04:23.007Z,100539.25
2022-08-18T03:06:56.308Z,100538.78
2022-08-18T03:09:23.445Z,100535.09
2022-08-18T03:11:50.370Z,100532.19
2022-08-18T03:14:17.484Z,100530.91
2022-08-18T03:16:54.590Z,100541.69
2022-08-18T03:19:28.701Z,100536.72
2022-08-18T03:22:03.073Z,100542.50
2022-08-18T03:24:32.329Z,100541.53
2022-08-18T03:27:05.905Z,100539.44
2022-08-18T03:29:34.266Z,100543.94
2022-08-18T03:32:04.540Z,100551.63
2022-08-18T03:34:32.394Z,100536.53
2022-08-18T03:37:00.995Z,100537.97
2022-08-18T03:39:29.109Z,100540.22
2022-08-18T03:42:00.982Z,100538.94
2022-08-18T03:44:33.027Z,100539.91
2022-08-18T03:47:02.970Z,100553.06
2022-08-18T03:49:33.807Z,100559.63
2022-08-18T03:52:01.636Z,100561.41
2022-08-18T03:54:33.443Z,100560.59
2022-08-18T03:57:00.580Z,100560.44
2022-08-18T03:59:30.738Z,100563.81
2022-08-18T04:01:57.841Z,100564.75
2022-08-18T04:04:27.632Z,100554.66
2022-08-18T04:07:17.510Z,100556.09
2022-08-18T04:09:45.711Z,100564.59
2022-08-18T04:12:16.552Z,100562.19
2022-08-18T04:14:49.187Z,100570.06
2022-08-18T04:17:25.117Z,100570.38
2022-08-18T04:19:54.789Z,100570.38
2022-08-18T04:22:23.054Z,100580.00
2022-08-18T04:24:50.632Z,100576.16
2022-08-18T04:27:20.411Z,100578.25
2022-08-18T04:29:47.923Z,100577.13
2022-08-18T04:32:15.140Z,100572.16
2022-08-18T04:34:42.408Z,100571.66
2022-08-18T04:37:09.846Z,100583.72
2022-08-18T04:39:37.736Z,100576.81
2022-08-18T04:42:06.084Z,100575.69
2022-08-18T04:44:34.689Z,100573.59
2022-08-18T04:47:02.296Z,100571.69
2022-08-18T04:49:30.287Z,100576.97
2022-08-18T04:52:36.485Z,100578.91
2022-08-18T04:55:05.894Z,100570.91
2022-08-18T04:57:34.742Z,100576.84
2022-08-18T05:00:05.150Z,100581.50
2022-08-18T05:02:33.029Z,100587.97
2022-08-18T05:05:04.388Z,100580.88
2022-08-18T05:07:31.612Z,100590.50
2022-08-18T05:09:58.583Z,100594.69
2022-08-18T05:12:26.639Z,100590.34
2022-08-18T05:14:56.683Z,100599.16
2022-08-18T05:17:29.079Z,100586.63
2022-08-18T05:19:58.872Z,100590.94
2022-08-18T05:22:30.479Z,100583.72
2022-08-18T05:24:58.878Z,100579.69
2022-08-18T05:27:25.774Z,100587.69
2022-08-18T05:29:52.723Z,100596.97
2022-08-18T05:32:41.831Z,100583.31
2022-08-18T05:35:31.802Z,100594.53
2022-08-18T05:38:18.013Z,100587.44
2022-08-18T05:40:49.901Z,100599.00
2022-08-18T05:43:18.255Z,100587.53
2022-08-18T05:45:45.301Z,100590.72
2022-08-18T05:48:14.222Z,100592.63
2022-08-18T05:50:41.436Z,100597.56
2022-08-18T05:53:14.667Z,100593.50
2022-08-18T05:56:19.999Z,100599.06
2022-08-18T05:58:52.139Z,100590.66
2022-08-18T06:01:25.794Z,100599.31
2022-08-18T06:04:02.000Z,100593.13
2022-08-18T06:06:31.309Z,100589.53
2022-08-18T06:09:33.248Z,100589.91
2022-08-18T06:12:17.424Z,100588.38
2022-08-18T06:14:44.717Z,100590.69
2022-08-18T06:17:43.803Z,100589.25
2022-08-18T06:20:28.386Z,100588.88
2022-08-18T06:23:32.868Z,100593.63
2022-08-18T06:26:10.572Z,100600.41
2022-08-18T06:29:25.138Z,100600.66
2022-08-18T06:32:24.504Z,100605.75
2022-08-18T06:35:04.432Z,100601.63
2022-08-18T06:37:57.253Z,100612.41
2022-08-18T06:40:24.807Z,100603.16
2022-08-18T06:42:51.790Z,100609.63
2022-08-18T06:45:24.806Z,100614.41
2022-08-18T06:48:36.101Z,100607.81
2022-08-18T06:51:07.465Z,100610.34
2022-08-18T06:54:00.364Z,100614.38
2022-08-18T06:56:39.410Z,100606.63
2022-08-18T06:59:27.690Z,100611.81
2022-08-18T07:02:20.034Z,100616.91
2022-08-18T07:05:05.728Z,100611.78
2022-08-18T07:07:40.862Z,100609.75
2022-08-18T07:10:14.629Z,100612.16
2022-08-18T07:13:12.731Z,100615.25
2022-08-18T07:15:40.601Z,100617.88
2022-08-18T07:18:10.109Z,100614.22
2022-08-18T07:20:57.949Z,100611.47
2022-08-18T07:23:38.549Z,100591.25
2022-08-18T07:26:19.154Z,100592.78
2022-08-18T07:28:49.992Z,100594.25
2022-08-18T07:31:40.276Z,100594.91
2022-08-18T07:34:47.922Z,100589.66
2022-08-18T07:37:42.329Z,100584.06
2022-08-18T07:40:36.067Z,100598.34
2022-08-18T07:43:11.511Z,100580.81
2022-08-18T07:45:44.485Z,100592.94
2022-08-18T07:48:41.310Z,100590.78
2022-08-18T07:51:43.383Z,100596.91
2022-08-18T07:55:00.121Z,100593.47
2022-08-18T07:57:45.220Z,100601.47
2022-08-18T08:00:55.369Z,100599.59
2022-08-18T08:03:35.390Z,100601.31
2022-08-18T08:06:20.568Z,100606.19
2022-08-18T08:09:05.925Z,100601.22
2022-08-18T08:11:46.986Z,100607.16
2022-08-18T08:14:16.661Z,100614.38
2022-08-18T08:16:50.127Z,100613.31
2022-08-18T08:19:59.417Z,100611.84
2022-08-18T08:23:17.856Z,100609.22
2022-08-18T08:25:52.588Z,100602.16
2022-08-18T08:28:52.474Z,100615.06
2022-08-18T08:31:42.448Z,100615.22
2022-08-18T08:34:26.031Z,100613.00
2022-08-18T08:37:04.997Z,100609.66
2022-08-18T08:39:57.801Z,100607.84
2022-08-18T08:43:01.349Z,100617.53
2022-08-18T08:45:37.000Z,100602.25
2022-08-18T08:48:21.311Z,100611.47
2022-08-18T08:51:06.322Z,100607.59
2022-08-18T08:53:43.861Z,100610.50
2022-08-18T08:56:16.566Z,100607.50
2022-08-18T08:58:49.912Z,100600.88
2022-08-18T09:01:44.275Z,100599.34
2022-08-18T09:05:09.981Z,100594.31
2022-08-18T09:08:10.910Z,100587.22
2022-08-18T09:10:59.246Z,100578.44
2022-08-18T09:13:51.946Z,100576.66
2022-08-18T09:16:24.591Z,100573.63
2022-08-18T09:19:16.333Z,100573.22
2022-08-18T09:22:37.254Z,100569.53
2022-08-18T09:25:29.698Z,100570.38
2022-08-18T09:28:16.417Z,100561.03
2022-08-18T09:31:02.344Z,100551.41
2022-08-18T09:33:42.335Z,100552.13
2022-08-18T09:36:25.943Z,100542.59
2022-08-18T09:43:13.069Z,100539.91
2022-08-18T09:45:47.250Z,100540.69
2022-08-18T09:48:20.778Z,100531.38
2022-08-18T09:51:23.548Z,100525.97
2022-08-18T09:53:53.780Z,100520.16
2022-08-18T09:56:53.807Z,100519.56
2022-08-18T09:59:45.378Z,100520.88
2022-08-18T10:02:36.827Z,100520.44
2022-08-18T10:05:20.239Z,100510.94
2022-08-18T10:08:07.220Z,100510.78
2022-08-18T10:14:04.826Z,100497.34
2022-08-18T10:17:44.625Z,100485.00
2022-08-18T10:20:52.361Z,100480.34
2022-08-18T10:24:15.178Z,100483.16
2022-08-18T10:26:54.821Z,100487.50
2022-08-18T10:29:24.773Z,100488.31
2022-08-18T10:31:58.546Z,100489.25
2022-08-18T10:34:52.343Z,100483.34
2022-08-18T10:37:42.213Z,100486.53
2022-08-18T10:40:13.230Z,100483.81
2022-08-18T10:42:59.932Z,100479.28
2022-08-18T10:45:39.016Z,100478.19
2022-08-18T10:48:24.329Z,100479.31
2022-08-18T10:51:11.629Z,100470.91
2022-08-18T10:53:55.443Z,100461.56
2022-08-18T10:57:23.157Z,100458.66
2022-08-18T11:00:02.234Z,100462.66
2022-08-18T11:03:40.054Z,100458.44
2022-08-18T11:06:17.952Z,100464.59
2022-08-18T11:08:55.042Z,100459.63
2022-08-18T11:11:33.760Z,100457.84
2022-08-18T11:14:54.805Z,100441.53
2022-08-18T11:18:06.418Z,100452.63
2022-08-18T11:20:40.253Z,100454.09
2022-08-18T11:23:17.482Z,100449.97
2022-08-18T11:25:45.217Z,100429.69
2022-08-18T11:28:30.294Z,100431.56
2022-08-18T11:30:59.669Z,100435.41
2022-08-18T11:33:28.160Z,100446.00
2022-08-18T11:35:58.150Z,100437.09
2022-08-18T11:41:26.366Z,100437.41
2022-08-18T11:44:20.960Z,100431.53
2022-08-18T11:46:52.007Z,100427.63
2022-08-18T11:49:33.349Z,100426.94
2022-08-18T11:52:19.843Z,100430.50
2022-08-18T11:55:14.722Z,100422.25
2022-08-18T12:00:47.928Z,100426.78
2022-08-18T12:03:39.548Z,100423.28
2022-08-18T12:06:29.843Z,100416.81
2022-08-18T12:09:07.154Z,100419.69
2022-08-18T12:11:41.225Z,100420.47
2022-08-18T12:14:32.589Z,100422.94
2022-08-18T12:17:02.953Z,100425.50
2022-08-18T12:19:34.410Z,100433.41
2022-08-18T12:22:14.276Z,100438.78
2022-08-18T12:24:41.392Z,100433.38
2022-08-18T12:27:12.247Z,100431.47
2022-08-18T12:29:53.920Z,100410.94
2022-08-18T12:32:56.367Z,100415.25
2022-08-18T12:35:13.011Z,100417.72
2022-08-18T12:38:08.270Z,100406.31
2022-08-18T12:40:34.068Z,100400.63
2022-08-18T12:43:01.209Z,100395.16
2022-08-18T12:45:30.805Z,100391.34
2022-08-18T12:47:59.906Z,100391.09
2022-08-18T12:50:31.416Z,100377.06
2022-08-18T12:53:02.512Z,100382.53
2022-08-18T12:55:35.153Z,100377.94
2022-08-18T12:58:05.331Z,100374.56
2022-08-18T13:00:33.631Z,100381.31
2022-08-18T13:03:01.221Z,100382.72
2022-08-18T13:05:29.812Z,100382.75
2022-08-18T13:08:04.626Z,100373.66
2022-08-18T13:10:45.194Z,100373.09
2022-08-18T13:13:17.078Z,100374.28
2022-08-18T13:15:58.356Z,100367.56
2022-08-18T13:18:27.314Z,100361.66
2022-08-18T13:21:00.149Z,100358.00
2022-08-18T13:23:28.418Z,100359.50
2022-08-18T13:25:59.321Z,100349.09
2022-08-18T13:28:33.470Z,100350.06
2022-08-18T13:31:05.356Z,100345.34
2022-08-18T13:33:34.801Z,100342.16
2022-08-18T13:36:20.544Z,100339.13
2022-08-18T13:38:54.708Z,100330.63
2022-08-18T13:41:23.331Z,100338.09
2022-08-18T13:43:50.594Z,100343.06
2022-08-18T13:46:24.404Z,100340.13
2022-08-18T13:48:59.893Z,100346.72
2022-08-18T13:51:29.435Z,100343.38
2022-08-18T13:54:17.917Z,100343.69
2022-08-18T13:56:51.994Z,100346.34
2022-08-18T13:59:23.645Z,100343.00
2022-08-18T14:01:53.143Z,100338.25
2022-08-18T14:04:23.048Z,100333.69
2022-08-18T14:06:59.156Z,100333.44
2022-08-18T14:09:37.115Z,100336.84
2022-08-18T14:12:22.559Z,100332.06
2022-08-18T14:14:55.320Z,100336.06
2022-08-18T14:17:25.214Z,100334.50
2022-08-18T14:20:21.551Z,100337.00
2022-08-18T14:23:11.789Z,100331.72
2022-08-18T14:25:59.864Z,100326.50
2022-08-18T14:28:29.417Z,100323.13
2022-08-18T14:30:58.977Z,100329.97
2022-08-18T14:33:49.406Z,100338.63
2022-08-18T14:36:17.397Z,100344.16
2022-08-18T14:38:45.324Z,100334.84
2022-08-18T14:41:14.171Z,100348.19
2022-08-18T14:44:10.895Z,100356.63
2022-08-18T14:46:33.095Z,100358.22
2022-08-18T14:49:03.982Z,100356.56
2022-08-18T14:51:33.618Z,100359.81
2022-08-18T14:54:02.188Z,100350.78
2022-08-18T14:56:29.397Z,100352.81
2022-08-18T14:58:56.939Z,100341.78
2022-08-18T15:01:26.573Z,100342.22
2022-08-18T15:03:54.399Z,100362.22
2022-08-18T15:06:23.078Z,100355.66
2022-08-18T15:08:57.022Z,100383.47
2022-08-18T15:11:24.957Z,100380.41
2022-08-18T15:13:55.020Z,100382.88
2022-08-18T15:16:27.131Z,100367.66
2022-08-18T15:19:00.366Z,100365.84
2022-08-18T15:21:47.841Z,100368.53
2022-08-18T15:24:39.785Z,100374.19
2022-08-18T15:27:10.407Z,100383.31
2022-08-18T15:29:46.623Z,100388.19
2022-08-18T15:32:15.240Z,100390.44
2022-08-18T15:34:46.640Z,100387.03
2022-08-18T15:37:20.301Z,100388.84
2022-08-18T15:40:21.720Z,100381.09
2022-08-18T15:43:04.126Z,100382.34
2022-08-18T15:45:43.281Z,100377.94
2022-08-18T15:48:26.067Z,100374.75
2022-08-18T15:50:53.013Z,100377.47
2022-08-18T15:53:25.492Z,100380.03
2022-08-18T15:55:57.354Z,100374.06
2022-08-18T15:58:26.707Z,100391.06
2022-08-18T16:00:59.067Z,100394.91
2022-08-18T16:03:27.588Z,100413.16
2022-08-18T16:05:56.142Z,100429.81
2022-08-18T16:08:25.607Z,100430.97
2022-08-18T16:10:53.700Z,100450.50
2022-08-18T16:13:22.116Z,100451.25
2022-08-18T16:15:50.196Z,100463.13
2022-08-18T16:18:21.178Z,100470.84
2022-08-18T16:20:48.762Z,100490.53
2022-08-18T16:23:19.861Z,100495.84
2022-08-18T16:25:47.027Z,100520.94
2022-08-18T16:28:13.897Z,100546.19
2022-08-18T16:30:41.613Z,100583.78
2022-08-18T16:33:08.768Z,100597.03
2022-08-18T16:35:37.274Z,100597.91
2022-08-18T16:38:09.097Z,100590.47
2022-08-18T16:40:37.635Z,100596.09
2022-08-18T16:43:07.224Z,100586.13
2022-08-18T16:45:37.587Z,100591.16
2022-08-18T16:48:07.433Z,100593.56
2022-08-18T16:50:35.725Z,100585.16
2022-08-18T16:53:02.620Z,100578.06
2022-08-18T16:55:30.634Z,100572.19
2022-08-18T16:58:16.365Z,100568.81
2022-08-18T17:01:02.815Z,100547.88
2022-08-18T17:03:48.258Z,100520.81
2022-08-18T17:06:19.093Z,100529.03
2022-08-18T17:08:47.039Z,100532.22
2022-08-18T17:11:18.875Z,100536.69
2022-08-18T17:13:49.727Z,100535.75
2022-08-18T17:16:19.892Z,100524.06
2022-08-18T17:18:48.156Z,100528.13
2022-08-18T17:21:20.182Z,100526.22
2022-08-18T17:23:47.895Z,100529.13
2022-08-18T17:26:42.781Z,100530.28
2022-08-18T17:29:22.857Z,100539.47
2022-08-18T17:32:03.713Z,100542.38
2022-08-18T17:34:41.950Z,100542.09
2022-08-18T17:37:14.445Z,100533.09
2022-08-18T17:40:02.341Z,100529.41
2022-08-18T17:42:31.260Z,100537.63
2022-08-18T17:45:07.642Z,100523.66
2022-08-18T17:48:03.290Z,100527.84
2022-08-18T17:51:00.914Z,100524.81
2022-08-18T17:53:31.496Z,100519.84
2022-08-18T17:56:08.081Z,100519.03
2022-08-18T17:59:42.811Z,100507.94
2022-08-18T18:02:31.115Z,100528.97
2022-08-18T18:05:11.036Z,100524.66
2022-08-18T18:07:53.116Z,100536.09
2022-08-18T18:10:25.845Z,100530.63
2022-08-18T18:13:24.597Z,100539.28
2022-08-18T18:15:55.747Z,100546.69
2022-08-18T18:18:34.292Z,100545.56
2022-08-18T18:21:21.455Z,100549.88
2022-08-18T18:24:14.226Z,100560.34
2022-08-18T18:26:47.956Z,100544.75
2022-08-18T18:29:37.391Z,100540.09
2022-08-18T18:32:30.573Z,100547.97
2022-08-18T18:35:23.795Z,100553.75
2022-08-18T18:38:24.333Z,100551.34
2022-08-18T18:41:02.455Z,100546.69
2022-08-18T18:43:47.187Z,100545.22
2022-08-18T18:46:29.772Z,100547.31
2022-08-18T18:49:23.368Z,100539.59
2022-08-18T18:51:55.970Z,100544.25
2022-08-18T18:55:01.721Z,100541.69
2022-08-18T18:58:15.874Z,100549.06
2022-08-18T19:00:53.607Z,100540.88
2022-08-18T19:03:41.410Z,100540.06
2022-08-18T19:06:17.389Z,100546.50
2022-08-18T19:09:06.634Z,100546.19
2022-08-18T19:11:43.181Z,100541.19
2022-08-18T19:14:28.437Z,100551.31
2022-08-18T19:17:13.298Z,100556.94
2022-08-18T19:19:59.625Z,100560.13
2022-08-18T19:22:38.773Z,100560.47
2022-08-18T19:25:19.526Z,100574.75
2022-08-18T19:27:54.125Z,100569.28
2022-08-18T19:30:22.072Z,100567.50
2022-08-18T19:33:03.088Z,100558.03
2022-08-18T19:35:58.716Z,100547.56
2022-08-18T19:38:36.749Z,100546.44
2022-08-18T19:41:39.563Z,100547.25
2022-08-18T19:44:35.489Z,100574.88
2022-08-18T19:47:33.617Z,100579.22
2022-08-18T19:50:17.040Z,100570.22
2022-08-18T19:53:34.458Z,100557.69
2022-08-18T19:56:27.909Z,100561.56
2022-08-18T19:59:24.074Z,100566.69
2022-08-18T20:02:12.380Z,100572.97
2022-08-18T20:05:20.685Z,100574.09
2022-08-18T20:08:12.777Z,100558.81
2022-08-18T20:11:21.298Z,100558.31
2022-08-18T20:14:13.589Z,100558.31
2022-08-18T20:16:45.080Z,100565.38
2022-08-18T20:19:57.456Z,100563.13
2022-08-18T20:22:25.059Z,100558.81
2022-08-18T20:25:05.879Z,100555.75
2022-08-18T20:27:42.871Z,100543.69
2022-08-18T20:30:26.974Z,100548.06
2022-08-18T20:33:18.125Z,100549.16
2022-08-18T20:36:03.399Z,100545.31
2022-08-18T20:38:53.826Z,100540.94
2022-08-18T20:41:24.788Z,100545.31
2022-08-18T20:44:29.504Z,100551.25
2022-08-18T20:47:21.106Z,100568.78
2022-08-18T20:50:23.369Z,100581.00
2022-08-18T20:53:26.279Z,100596.72
2022-08-18T20:56:43.926Z,100597.88
2022-08-18T20:59:21.853Z,100595.78
2022-08-18T21:02:07.246Z,100602.69
2022-08-18T21:04:49.283Z,100613.91
2022-08-18T21:08:17.739Z,100595.13
2022-08-18T21:10:49.780Z,100586.47
2022-08-18T21:13:41.619Z,100582.59
2022-08-18T21:16:38.308Z,100567.66
2022-08-18T21:19:24.999Z,100559.00
2022-08-18T21:21:58.844Z,100549.53
2022-08-18T21:24:43.045Z,100534.44
2022-08-18T21:27:31.065Z,100542.31
2022-08-18T21:30:04.570Z,100532.69
2022-08-18T21:32:36.265Z,100534.13
2022-08-18T21:35:26.620Z,100539.59
2022-08-18T21:38:11.781Z,100536.84
2022-08-18T21:40:47.263Z,100523.53
2022-08-18T21:43:55.503Z,100516.31
2022-08-18T21:46:30.422Z,100504.25
2022-08-18T21:49:02.472Z,100509.06
2022-08-18T21:51:37.122Z,100510.53
2022-08-18T21:54:04.569Z,100509.25
2022-08-18T21:56:36.175Z,100522.41
2022-08-18T21:59:19.149Z,100522.72
2022-08-18T22:01:54.484Z,100524.00
2022-08-18T22:04:26.744Z,100513.72
2022-08-18T22:06:59.206Z,100519.03
2022-08-18T22:09:49.511Z,100517.88
2022-08-18T22:12:49.395Z,100523.50
2022-08-18T22:15:44.218Z,100519.16
2022-08-18T22:18:17.821Z,100515.31
2022-08-18T22:20:58.930Z,100515.78
2022-08-18T22:23:55.750Z,100520.94
2022-08-18T22:26:30.802Z,100524.94
2022-08-18T22:29:07.436Z,100522.22
2022-08-18T22:31:45.284Z,100533.59
2022-08-18T22:34:27.158Z,100537.94
2022-08-18T22:37:19.212Z,100539.88
2022-08-18T22:39:54.434Z,100543.88
2022-08-18T22:42:26.365Z,100550.94
2022-08-18T22:44:53.657Z,100537.28
2022-08-18T22:47:20.867Z,100532.31
2022-08-18T22:49:48.037Z,100533.59
2022-08-18T22:52:31.145Z,100536.63
2022-08-18T22:55:00.587Z,100529.91
2022-08-18T22:57:34.448Z,100536.16
2022-08-18T23:00:12.192Z,100527.97
2022-08-18T23:02:40.395Z,100523.16
2022-08-18T23:05:07.828Z,100523.16
2022-08-18T23:07:35.198Z,100520.44
2022-08-18T23:10:03.423Z,100515.63
2022-08-18T23:12:35.191Z,100532.00
2022-08-18T23:15:09.842Z,100544.06
2022-08-18T23:17:37.321Z,100547.28
2022-08-18T23:20:08.715Z,100545.66
2022-08-18T23:22:39.741Z,100555.78
2022-08-18T23:25:09.453Z,100550.66
2022-08-18T23:27:36.879Z,100550.50
2022-08-18T23:30:05.256Z,100557.88
2022-08-18T23:32:33.362Z,100565.28
2022-08-18T23:35:00.821Z,100571.38
2022-08-18T23:37:28.992Z,100560.78
2022-08-18T23:39:56.101Z,100547.47
2022-08-18T23:42:23.900Z,100546.81
2022-08-18T23:44:50.829Z,100555.16
2022-08-18T23:47:19.638Z,100553.22
2022-08-18T23:49:46.855Z,100553.22
2022-08-18T23:52:13.876Z,100546.16
2022-08-18T23:54:40.985Z,100535.09
2022-08-18T23:57:07.875Z,100541.97
2022-08-18T23:59:34.963Z,100544.38
